createdAt,value
2024-01-20T00:01:23.482Z,21.70
2024-01-20T00:03:51.010Z,17.55
2024-01-20T00:06:18.295Z,15.73
2024-01-20T00:08:45.986Z,18.48
2024-01-20T00:11:14.931Z,17.30
2024-01-20T00:13:42.130Z,21.42
2024-01-20T00:16:09.585Z,15.40
2024-01-20T00:18:36.762Z,17.42
2024-01-20T00:21:04.868Z,23.55
2024-01-20T00:23:31.844Z,19.80
2024-01-20T00:25:58.884Z,19.75
2024-01-20T00:28:25.940Z,19.77
2024-01-20T00:30:52.905Z,17.10
2024-01-20T00:33:20.174Z,17.45
2024-01-20T00:35:47.386Z,23.45
2024-01-20T00:38:15.126Z,20.23
2024-01-20T00:40:42.221Z,16.20
2024-01-20T00:43:09.153Z,19.20
2024-01-20T00:45:36.254Z,15.25
2024-01-20T00:48:03.738Z,19.95
2024-01-20T00:50:31.931Z,21.77
2024-01-20T00:52:58.984Z,18.33
2024-01-20T00:55:26.324Z,20.88
2024-01-20T00:57:53.361Z,22.92
2024-01-20T01:00:20.504Z,15.15
2024-01-20T01:02:47.644Z,17.65
2024-01-20T01:05:14.842Z,16.23
2024-01-20T01:07:41.898Z,18.70
2024-01-20T01:10:09.152Z,15.05
2024-01-20T01:12:36.282Z,15.65
2024-01-20T01:15:03.684Z,17.95
2024-01-20T01:17:31.060Z,16.65
2024-01-20T01:19:58.342Z,18.60
2024-01-20T01:22:25.336Z,16.80
2024-01-20T01:24:52.329Z,15.32
2024-01-20T01:27:19.349Z,14.25
2024-01-20T01:29:46.508Z,18.25
2024-01-20T01:32:13.878Z,16.00
2024-01-20T01:34:40.886Z,15.65
2024-01-20T01:37:08.371Z,16.33
2024-01-20T01:39:36.199Z,16.73
2024-01-20T01:42:03.401Z,14.43
2024-01-20T01:44:31.543Z,13.80
2024-01-20T01:46:58.533Z,15.25
2024-01-20T01:49:25.618Z,15.07
2024-01-20T01:51:53.487Z,15.63
2024-01-20T01:54:21.188Z,20.42
2024-01-20T01:56:51.703Z,16.83
2024-01-20T01:59:20.524Z,14.63
2024-01-20T02:01:47.476Z,16.08
2024-01-20T02:04:14.583Z,15.60
2024-01-20T02:06:42.265Z,15.18
2024-01-20T02:09:11.281Z,18.80
2024-01-20T02:11:39.727Z,16.70
2024-01-20T02:14:08.070Z,17.35
2024-01-20T02:16:35.431Z,17.67
2024-01-20T02:19:06.411Z,16.75
2024-01-20T02:21:34.145Z,23.73
2024-01-20T02:24:11.029Z,20.38
2024-01-20T02:26:38.040Z,18.10
2024-01-20T02:29:05.013Z,18.50
2024-01-20T02:31:32.041Z,17.92
2024-01-20T02:33:59.205Z,20.63
2024-01-20T02:36:26.395Z,21.77
2024-01-20T02:38:53.395Z,17.20
2024-01-20T02:41:20.381Z,20.65
2024-01-20T02:43:47.382Z,20.25
2024-01-20T02:46:14.355Z,19.52
2024-01-20T02:48:41.457Z,17.88
2024-01-20T02:51:08.832Z,18.58
2024-01-20T02:53:35.784Z,18.65
2024-01-20T02:56:02.793Z,17.70
2024-01-20T02:58:29.704Z,20.63
2024-01-20T03:00:59.617Z,19.15
2024-01-20T03:03:27.744Z,20.70
2024-01-20T03:05:54.873Z,19.85
2024-01-20T03:08:21.955Z,23.85
2024-01-20T03:10:48.911Z,18.83
2024-01-20T03:13:15.897Z,19.05
2024-01-20T03:15:43.002Z,17.17
2024-01-20T03:18:12.214Z,16.67
2024-01-20T03:20:39.472Z,19.90
2024-01-20T03:23:07.505Z,16.63
2024-01-20T03:25:34.439Z,19.35
2024-01-20T03:28:01.359Z,19.25
2024-01-20T03:30:28.777Z,16.27
2024-01-20T03:32:57.425Z,19.65
2024-01-20T03:35:24.605Z,17.13
2024-01-20T03:37:51.611Z,16.55
2024-01-20T03:40:18.644Z,18.67
2024-01-20T03:42:45.561Z,20.00
2024-01-20T03:45:12.593Z,18.40
2024-01-20T03:47:39.562Z,22.65
2024-01-20T03:50:07.849Z,18.55
2024-01-20T03:52:34.880Z,18.35
2024-01-20T03:55:01.949Z,21.70
2024-01-20T03:57:28.887Z,20.75
2024-01-20T03:59:55.892Z,20.50
2024-01-20T04:02:22.869Z,20.48
2024-01-20T04:04:49.883Z,22.85
2024-01-20T04:07:16.850Z,22.17
2024-01-20T04:09:43.862Z,19.83
2024-01-20T04:12:10.840Z,22.45
2024-01-20T04:14:37.824Z,21.27
2024-01-20T04:17:05.107Z,24.13
2024-01-20T04:19:32.149Z,21.08
2024-01-20T04:21:59.122Z,21.52
2024-01-20T04:24:26.125Z,21.60
2024-01-20T04:26:53.268Z,20.88
2024-01-20T04:29:20.258Z,18.45
2024-01-20T04:31:47.316Z,20.23
2024-01-20T04:34:14.457Z,19.20
2024-01-20T04:36:41.518Z,18.58
2024-01-20T04:39:08.539Z,17.05
2024-01-20T04:41:35.502Z,18.60
2024-01-20T04:44:02.482Z,18.75
2024-01-20T04:46:29.440Z,15.05
2024-01-20T04:48:56.506Z,16.88
2024-01-20T04:51:25.316Z,17.83
2024-01-20T04:53:52.562Z,17.20
2024-01-20T04:56:21.109Z,20.98
2024-01-20T04:58:48.086Z,19.85
2024-01-20T05:01:15.027Z,16.02
2024-01-20T05:03:42.316Z,16.08
2024-01-20T05:06:09.369Z,15.23
2024-01-20T05:08:36.554Z,19.15
2024-01-20T05:11:03.590Z,11.18
2024-01-20T05:13:30.789Z,12.50
2024-01-20T05:15:57.822Z,13.77
2024-01-20T05:18:24.880Z,16.25
2024-01-20T05:20:52.418Z,12.52
2024-01-20T05:23:19.741Z,12.82
2024-01-20T05:25:46.739Z,14.20
2024-01-20T05:28:13.690Z,14.30
2024-01-20T05:30:41.923Z,14.02
2024-01-20T05:33:09.548Z,13.30
2024-01-20T05:35:38.919Z,11.95
2024-01-20T05:38:05.926Z,19.75
2024-01-20T05:40:32.923Z,14.43
2024-01-20T05:42:59.976Z,15.55
2024-01-20T05:45:26.940Z,12.90
2024-01-20T05:47:53.932Z,16.40
2024-01-20T05:50:20.922Z,15.13
2024-01-20T05:52:47.881Z,13.70
2024-01-20T05:55:14.984Z,15.93
2024-01-20T05:57:42.007Z,14.50
2024-01-20T06:00:10.567Z,13.00
2024-01-20T06:02:37.780Z,13.65
2024-01-20T06:05:05.101Z,14.68
2024-01-20T06:07:32.251Z,12.30
2024-01-20T06:09:59.189Z,14.68
2024-01-20T06:12:26.180Z,15.88
2024-01-20T06:14:53.226Z,15.10
2024-01-20T06:17:20.176Z,15.65
2024-01-20T06:19:47.248Z,14.13
2024-01-20T06:22:14.257Z,13.82
2024-01-20T06:24:41.520Z,11.43
2024-01-20T06:27:08.565Z,13.73
2024-01-20T06:29:35.523Z,15.77
2024-01-20T06:32:02.480Z,12.65
2024-01-20T06:34:29.485Z,12.70
2024-01-20T06:36:57.989Z,16.17
2024-01-20T06:39:25.080Z,14.50
2024-01-20T06:41:52.074Z,14.35
2024-01-20T06:44:19.325Z,13.15
2024-01-20T06:46:46.274Z,13.77
2024-01-20T06:49:13.393Z,12.95
2024-01-20T06:51:40.846Z,14.70
2024-01-20T06:54:09.896Z,14.85
2024-01-20T06:56:36.916Z,11.38
2024-01-20T06:59:05.448Z,14.52
2024-01-20T07:01:32.397Z,13.60
2024-01-20T07:03:59.403Z,14.05
2024-01-20T07:06:26.825Z,10.20
2024-01-20T07:08:56.365Z,10.90
2024-01-20T07:11:26.115Z,10.48
2024-01-20T07:13:53.061Z,11.02
2024-01-20T07:16:21.130Z,11.27
2024-01-20T07:18:48.190Z,14.98
2024-01-20T07:21:15.277Z,12.05
2024-01-20T07:23:42.468Z,13.85
2024-01-20T07:26:09.547Z,8.55
2024-01-20T07:28:37.347Z,8.77
2024-01-20T07:31:04.446Z,11.23
2024-01-20T07:33:31.708Z,10.13
2024-01-20T07:35:58.914Z,12.07
2024-01-20T07:38:26.107Z,12.25
2024-01-20T07:40:56.228Z,7.97
2024-01-20T07:43:23.205Z,12.25
2024-01-20T07:45:50.200Z,11.35
2024-01-20T07:48:18.312Z,10.70
2024-01-20T07:50:45.418Z,12.57
2024-01-20T07:53:13.299Z,13.15
2024-01-20T07:55:40.346Z,8.65
2024-01-20T07:58:07.350Z,12.00
2024-01-20T08:00:34.501Z,10.48
2024-01-20T08:03:01.787Z,9.23
2024-01-20T08:05:31.857Z,8.43
2024-01-20T08:07:59.394Z,11.40
2024-01-20T08:10:26.628Z,10.80
2024-01-20T08:12:53.744Z,10.50
2024-01-20T08:15:22.284Z,8.75
2024-01-20T08:17:50.266Z,10.70
2024-01-20T08:20:17.271Z,11.90
2024-01-20T08:22:44.310Z,10.32
2024-01-20T08:25:11.444Z,9.40
2024-01-20T08:27:38.449Z,11.50
2024-01-20T08:30:06.349Z,13.18
2024-01-20T08:32:33.499Z,13.10
2024-01-20T08:35:01.068Z,9.80
2024-01-20T08:37:28.056Z,9.68
2024-01-20T08:39:55.262Z,10.13
2024-01-20T08:42:23.132Z,12.30
2024-01-20T08:44:50.189Z,9.13
2024-01-20T08:47:17.545Z,11.73
2024-01-20T08:49:45.362Z,12.10
2024-01-20T08:52:13.237Z,10.18
2024-01-20T08:54:41.694Z,11.48
2024-01-20T08:57:08.775Z,11.35
2024-01-20T08:59:35.847Z,8.80
2024-01-20T09:02:02.886Z,11.35
2024-01-20T09:04:29.843Z,11.80
2024-01-20T09:06:56.943Z,9.15
2024-01-20T09:09:24.250Z,8.43
2024-01-20T09:11:51.554Z,10.82
2024-01-20T09:14:18.765Z,9.63
2024-01-20T09:16:46.275Z,11.82
2024-01-20T09:19:13.455Z,12.55
2024-01-20T09:21:44.086Z,9.40
2024-01-20T09:24:12.098Z,7.82
2024-01-20T09:26:39.719Z,9.43
2024-01-20T09:29:12.843Z,7.32
2024-01-20T09:31:41.499Z,8.13
2024-01-20T09:34:09.390Z,8.95
2024-01-20T09:36:36.604Z,9.55
2024-01-20T09:39:12.310Z,7.53
2024-01-20T09:41:42.260Z,8.40
2024-01-20T09:44:12.520Z,10.32
2024-01-20T09:46:40.356Z,10.98
2024-01-20T09:49:07.511Z,13.75
2024-01-20T09:51:34.993Z,6.90
2024-01-20T09:54:02.392Z,10.25
2024-01-20T09:56:29.838Z,8.68
2024-01-20T09:58:59.316Z,8.10
2024-01-20T10:01:27.822Z,9.05
2024-01-20T10:04:00.395Z,9.68
2024-01-20T10:06:28.430Z,9.18
2024-01-20T10:08:57.764Z,11.27
2024-01-20T10:11:25.804Z,7.75
2024-01-20T10:13:53.838Z,9.48
2024-01-20T10:19:46.373Z,7.90
2024-01-20T10:22:14.251Z,7.47
2024-01-20T10:24:50.746Z,9.80
2024-01-20T10:27:19.486Z,9.93
2024-01-20T10:29:48.434Z,8.85
2024-01-20T10:32:16.153Z,8.48
2024-01-20T10:34:44.316Z,8.63
2024-01-20T10:37:15.419Z,10.80
2024-01-20T10:39:44.594Z,7.97
2024-01-20T10:42:16.109Z,8.40
2024-01-20T10:45:00.454Z,7.30
2024-01-20T10:47:53.382Z,7.97
2024-01-20T10:50:22.800Z,10.15
2024-01-20T10:52:50.333Z,9.50
2024-01-20T10:55:18.588Z,11.40
2024-01-20T10:57:50.070Z,8.73
2024-01-20T11:00:18.925Z,7.85
2024-01-20T11:02:46.873Z,9.75
2024-01-20T11:05:23.263Z,8.48
2024-01-20T11:08:06.933Z,8.57
2024-01-20T11:10:41.153Z,9.48
2024-01-20T11:13:10.436Z,9.52
2024-01-20T11:15:37.756Z,8.80
2024-01-20T11:18:19.670Z,9.77
2024-01-20T11:21:03.283Z,8.07
2024-01-20T11:23:31.025Z,10.98
2024-01-20T11:25:59.022Z,10.32
2024-01-20T11:28:31.152Z,7.68
2024-01-20T11:30:59.856Z,12.43
2024-01-20T11:33:27.679Z,7.90
2024-01-20T11:35:54.846Z,8.43
2024-01-20T11:38:22.317Z,11.75
2024-01-20T11:41:02.641Z,8.52
2024-01-20T11:43:30.975Z,10.52
2024-01-20T11:45:58.543Z,8.98
2024-01-20T11:48:27.159Z,16.13
2024-01-20T11:50:54.622Z,12.63
2024-01-20T11:53:23.015Z,13.65
2024-01-20T11:55:56.131Z,10.38
2024-01-20T11:58:23.609Z,11.75
2024-01-20T12:00:55.940Z,13.07
2024-01-20T12:03:23.908Z,11.23
2024-01-20T12:05:53.533Z,12.60
2024-01-20T12:08:21.724Z,10.40
2024-01-20T12:10:50.034Z,10.77
2024-01-20T12:13:17.845Z,9.85
2024-01-20T12:15:47.779Z,9.98
2024-01-20T12:18:17.822Z,10.65
2024-01-20T12:20:46.430Z,10.50
2024-01-20T12:23:20.482Z,8.48
2024-01-20T12:25:52.222Z,9.63
2024-01-20T12:28:20.044Z,10.45
2024-01-20T12:30:47.174Z,11.30
2024-01-20T12:33:16.357Z,7.85
2024-01-20T12:35:45.568Z,8.20
2024-01-20T12:38:16.181Z,6.60
2024-01-20T12:40:47.835Z,10.35
2024-01-20T12:43:15.305Z,7.22
2024-01-20T12:45:42.326Z,8.73
2024-01-20T12:48:09.726Z,11.98
2024-01-20T12:50:36.767Z,8.98
2024-01-20T12:53:04.800Z,8.00
2024-01-20T12:55:32.162Z,11.50
2024-01-20T12:58:00.034Z,8.63
2024-01-20T13:00:29.022Z,11.35
2024-01-20T13:02:56.231Z,10.82
2024-01-20T13:05:23.386Z,10.20
2024-01-20T13:07:50.427Z,8.23
2024-01-20T13:10:18.964Z,8.70
2024-01-20T13:12:46.418Z,8.30
2024-01-20T13:15:13.560Z,9.45
2024-01-20T13:17:42.257Z,11.23
2024-01-20T13:20:10.689Z,6.90
2024-01-20T13:22:37.845Z,10.63
2024-01-20T13:25:05.506Z,8.30
2024-01-20T13:27:32.512Z,11.02
2024-01-20T13:30:00.676Z,9.20
2024-01-20T13:32:28.125Z,6.60
2024-01-20T13:34:55.292Z,9.55
2024-01-20T13:37:23.578Z,7.38
2024-01-20T13:39:52.091Z,8.77
2024-01-20T13:42:19.329Z,8.32
2024-01-20T13:44:46.283Z,8.77
2024-01-20T13:47:15.103Z,7.15
2024-01-20T13:49:42.268Z,6.57
2024-01-20T13:52:09.338Z,7.57
2024-01-20T13:54:37.094Z,8.25
2024-01-20T13:57:05.495Z,8.52
2024-01-20T13:59:32.601Z,7.88
2024-01-20T14:01:59.845Z,6.72
2024-01-20T14:04:26.944Z,6.95
2024-01-20T14:06:55.722Z,9.20
2024-01-20T14:09:23.741Z,6.45
2024-01-20T14:11:50.791Z,8.18
2024-01-20T14:14:17.708Z,10.63
2024-01-20T14:16:55.832Z,7.55
2024-01-20T14:19:23.598Z,8.80
2024-01-20T14:21:50.640Z,7.00
2024-01-20T14:24:18.190Z,7.93
2024-01-20T14:26:45.174Z,8.20
2024-01-20T14:29:12.236Z,9.55
2024-01-20T14:31:50.319Z,12.15
2024-01-20T14:34:19.477Z,10.85
2024-01-20T14:36:49.086Z,15.57
2024-01-20T14:39:22.410Z,15.77
2024-01-20T14:41:50.029Z,16.35
2024-01-20T14:44:17.546Z,12.20
2024-01-20T14:46:45.055Z,12.35
2024-01-20T14:49:12.197Z,10.73
2024-01-20T14:51:40.748Z,12.55
2024-01-20T14:54:07.913Z,12.15
2024-01-20T14:56:40.814Z,9.02
2024-01-20T14:59:08.226Z,14.13
2024-01-20T15:01:36.408Z,9.43
2024-01-20T15:04:05.610Z,16.00
2024-01-20T15:06:33.240Z,10.00
2024-01-20T15:09:00.541Z,16.05
2024-01-20T15:11:27.609Z,9.40
2024-01-20T15:13:54.758Z,10.55
2024-01-20T15:16:21.740Z,13.57
2024-01-20T15:18:49.055Z,11.95
2024-01-20T15:21:16.506Z,10.35
2024-01-20T15:23:43.543Z,10.60
2024-01-20T15:26:10.675Z,9.80
2024-01-20T15:28:37.696Z,8.43
2024-01-20T15:31:05.215Z,9.73
2024-01-20T15:33:32.538Z,10.80
2024-01-20T15:35:59.717Z,11.23
2024-01-20T15:38:26.888Z,11.18
2024-01-20T15:40:57.179Z,9.25
2024-01-20T15:43:24.675Z,12.57
2024-01-20T15:45:51.759Z,11.77
2024-01-20T15:48:19.003Z,7.57
2024-01-20T15:50:46.054Z,10.90
2024-01-20T15:53:13.030Z,10.43
2024-01-20T15:55:40.120Z,11.48
2024-01-20T15:58:07.127Z,13.88
2024-01-20T16:00:35.661Z,10.80
2024-01-20T16:03:03.116Z,8.95
2024-01-20T16:05:30.221Z,9.93
2024-01-20T16:07:57.973Z,16.52
2024-01-20T16:10:25.266Z,10.23
2024-01-20T16:12:52.771Z,12.60
2024-01-20T16:15:21.343Z,9.18
2024-01-20T16:17:48.602Z,15.02
2024-01-20T16:20:15.756Z,12.40
2024-01-20T16:22:42.937Z,15.27
2024-01-20T16:25:10.276Z,10.73
2024-01-20T16:27:37.831Z,11.40
2024-01-20T16:30:06.391Z,12.05
2024-01-20T16:32:33.555Z,11.30
2024-01-20T16:35:01.311Z,12.40
2024-01-20T16:37:29.955Z,11.93
2024-01-20T16:40:02.069Z,10.90
2024-01-20T16:42:29.381Z,12.27
2024-01-20T16:44:56.817Z,9.38
2024-01-20T16:47:25.587Z,14.15
2024-01-20T16:49:52.885Z,11.27
2024-01-20T16:52:20.203Z,12.25
2024-01-20T16:54:47.196Z,14.30
2024-01-20T16:57:15.424Z,10.93
2024-01-20T16:59:43.741Z,14.30
2024-01-20T17:02:11.653Z,13.65
2024-01-20T17:04:38.724Z,11.95
2024-01-20T17:07:05.847Z,13.45
2024-01-20T17:09:32.908Z,11.65
2024-01-20T17:12:01.118Z,10.93
2024-01-20T17:14:28.199Z,13.88
2024-01-20T17:16:55.183Z,10.02
2024-01-20T17:19:22.380Z,13.07
2024-01-20T17:21:49.630Z,13.98
2024-01-20T17:24:17.790Z,15.13
2024-01-20T17:26:47.161Z,13.30
2024-01-20T17:29:14.121Z,13.45
2024-01-20T17:31:41.079Z,12.60
2024-01-20T17:34:08.158Z,14.27
2024-01-20T17:36:35.211Z,15.82
2024-01-20T17:39:03.669Z,12.13
2024-01-20T17:41:30.853Z,12.30
2024-01-20T17:43:57.820Z,12.00
2024-01-20T17:46:25.590Z,13.90
2024-01-20T17:48:52.705Z,14.45
2024-01-20T17:51:19.846Z,11.77
2024-01-20T17:53:47.165Z,11.25
2024-01-20T17:56:14.233Z,12.48
2024-01-20T17:58:41.149Z,12.95
2024-01-20T18:01:08.474Z,13.30
2024-01-20T18:03:36.757Z,12.80
2024-01-20T18:06:03.975Z,10.82
2024-01-20T18:08:31.016Z,12.73
2024-01-20T18:10:57.950Z,12.68
2024-01-20T18:13:24.940Z,11.32
2024-01-20T18:15:52.281Z,12.15
2024-01-20T18:18:19.429Z,14.48
2024-01-20T18:20:46.527Z,13.65
2024-01-20T18:23:13.826Z,14.60
2024-01-20T18:25:40.824Z,13.52
2024-01-20T18:28:07.844Z,18.40
2024-01-20T18:30:35.938Z,14.68
2024-01-20T18:33:03.156Z,14.50
2024-01-20T18:35:31.373Z,14.88
2024-01-20T18:37:58.358Z,12.77
2024-01-20T18:40:25.371Z,15.95
2024-01-20T18:42:52.356Z,13.32
2024-01-20T18:45:19.624Z,10.98
2024-01-20T18:47:47.163Z,12.88
2024-01-20T18:50:14.800Z,15.55
2024-01-20T18:52:41.780Z,12.40
2024-01-20T18:55:09.603Z,12.25
2024-01-20T18:57:36.672Z,13.70
2024-01-20T19:00:05.504Z,13.73
2024-01-20T19:02:32.987Z,14.23
2024-01-20T19:05:00.132Z,11.65
2024-01-20T19:07:27.161Z,12.32
2024-01-20T19:09:55.104Z,12.75
2024-01-20T19:12:22.136Z,12.55
2024-01-20T19:14:51.648Z,12.23
2024-01-20T19:17:18.713Z,13.15
2024-01-20T19:19:46.079Z,12.30
2024-01-20T19:22:13.368Z,13.75
2024-01-20T19:24:40.485Z,12.85
2024-01-20T19:27:11.011Z,11.45
2024-01-20T19:29:38.148Z,21.00
2024-01-20T19:32:05.470Z,11.55
2024-01-20T19:34:32.608Z,17.98
2024-01-20T19:36:59.811Z,12.20
2024-01-20T19:39:26.796Z,15.25
2024-01-20T19:41:53.749Z,10.32
2024-01-20T19:44:21.496Z,14.73
2024-01-20T19:46:48.723Z,12.52
2024-01-20T19:49:16.062Z,10.85
2024-01-20T19:51:43.755Z,12.63
2024-01-20T19:54:12.755Z,10.38
2024-01-20T19:56:49.448Z,10.77
2024-01-20T19:59:19.353Z,12.75
2024-01-20T20:01:47.454Z,12.10
2024-01-20T20:04:18.973Z,10.32
2024-01-20T20:06:47.615Z,11.52
2024-01-20T20:09:17.285Z,10.00
2024-01-20T20:11:44.648Z,10.60
2024-01-20T20:14:12.875Z,10.85
2024-01-20T20:16:41.336Z,7.80
2024-01-20T20:19:09.116Z,8.13
2024-01-20T20:21:36.233Z,10.18
2024-01-20T20:24:03.262Z,8.52
2024-01-20T20:26:31.083Z,9.30
2024-01-20T20:28:58.855Z,7.07
2024-01-20T20:31:28.206Z,7.35
2024-01-20T20:33:55.770Z,7.55
2024-01-20T20:36:23.123Z,7.22
2024-01-20T20:38:50.124Z,7.03
2024-01-20T20:41:17.311Z,7.47
2024-01-20T20:43:44.393Z,7.18
2024-01-20T20:46:11.354Z,7.80
2024-01-20T20:48:38.434Z,6.57
2024-01-20T20:51:07.460Z,7.57
2024-01-20T20:53:34.481Z,6.70
2024-01-20T20:56:01.457Z,8.93
2024-01-20T20:58:29.468Z,6.55
2024-01-20T21:00:56.571Z,7.72
2024-01-20T21:03:23.985Z,7.10
2024-01-20T21:05:51.323Z,6.82
2024-01-20T21:08:19.541Z,7.05
2024-01-20T21:10:46.752Z,8.93
2024-01-20T21:13:13.744Z,6.00
2024-01-20T21:15:42.299Z,6.50
2024-01-20T21:18:09.804Z,6.88
2024-01-20T21:20:37.007Z,5.43
2024-01-20T21:23:04.748Z,8.75
2024-01-20T21:25:31.861Z,8.30
2024-01-20T21:27:59.370Z,6.97
2024-01-20T21:30:28.414Z,9.95
2024-01-20T21:32:55.684Z,6.05
2024-01-20T21:35:23.047Z,6.63
2024-01-20T21:37:50.202Z,6.80
2024-01-20T21:40:17.246Z,6.65
2024-01-20T21:42:44.308Z,7.28
2024-01-20T21:45:11.634Z,7.88
2024-01-20T21:47:38.701Z,6.93
2024-01-20T21:50:07.491Z,5.80
2024-01-20T21:52:34.778Z,6.50
2024-01-20T21:55:04.921Z,8.15
2024-01-20T21:57:33.147Z,8.55
2024-01-20T22:00:00.254Z,6.40
2024-01-20T22:02:28.715Z,8.20
2024-01-20T22:04:55.688Z,4.80
2024-01-20T22:07:23.864Z,5.68
2024-01-20T22:09:50.909Z,5.03
2024-01-20T22:12:18.171Z,7.25
2024-01-20T22:14:45.753Z,6.80
2024-01-20T22:17:13.697Z,7.55
2024-01-20T22:19:40.906Z,6.30
2024-01-20T22:22:08.002Z,6.18
2024-01-20T22:24:35.106Z,5.20
2024-01-20T22:27:02.437Z,6.15
2024-01-20T22:29:31.955Z,7.45
2024-01-20T22:31:59.807Z,5.40
2024-01-20T22:34:31.950Z,6.38
2024-01-20T22:37:00.768Z,6.45
2024-01-20T22:39:28.488Z,5.05
2024-01-20T22:41:55.673Z,4.72
2024-01-20T22:44:22.624Z,4.65
2024-01-20T22:46:50.980Z,5.95
2024-01-20T22:49:18.153Z,8.23
2024-01-20T22:51:45.508Z,6.07
2024-01-20T22:54:14.930Z,7.75
2024-01-20T22:56:42.164Z,5.28
2024-01-20T22:59:09.296Z,6.35
2024-01-20T23:01:36.364Z,6.30
2024-01-20T23:04:03.486Z,5.65
2024-01-20T23:06:31.247Z,5.32
2024-01-20T23:08:58.461Z,6.03
2024-01-20T23:11:25.491Z,7.47
2024-01-20T23:13:53.269Z,9.20
2024-01-20T23:16:20.295Z,6.72
2024-01-20T23:18:47.333Z,6.53
2024-01-20T23:21:15.141Z,5.43
2024-01-20T23:23:42.236Z,8.73
2024-01-20T23:26:10.670Z,8.23
2024-01-20T23:28:37.588Z,6.32
2024-01-20T23:31:04.687Z,7.40
2024-01-20T23:33:31.828Z,9.13
2024-01-20T23:35:58.926Z,9.18
2024-01-20T23:38:25.876Z,8.82
2024-01-20T23:40:52.904Z,5.65
2024-01-20T23:43:23.226Z,6.20
2024-01-20T23:45:50.587Z,7.72
2024-01-20T23:48:18.599Z,8.25
2024-01-20T23:50:45.658Z,8.63
2024-01-20T23:53:12.914Z,8.02
2024-01-20T23:55:39.893Z,10.30
2024-01-20T23:58:06.863Z,9.43
